In Rescue
 
Open Full Screen Window  High Contrast Mode
Wind Gusting 21 knots
15
March 01, 2024 2:32 PM CST
Weather Information
Wind Direction
  190 °
Wind Speed
  15 kt (17 mph)
Wind Gust
  21 kt (24 mph)
Altimeter
29.61 in
Visibility
10 SM
Temperature
10° C
50° F
Dewpoint
01° C
34° F
Humidity
54%
Sky Condition
Clear
VFR

METAR K3N8 012032Z AUTO 19015G21KT 10SM CLR 10/01 A2961 RMK AO2 T01010009

FAA Disclaimer: The data displayed is for advisory purposes only and is not to be used for flight planning or operations.